Time;durP1;ratioP1;P1;durP2;ratioP2;P2;SDS_P1;SDS_P2;PMS_P1;PMS_P2;Temp;Humidity;BMP_temperature;BMP_pressure;BME280_temperature;BME280_humidity;BME280_pressure;Samples;Min_cycle;Max_cycle;Signal;HPM_P1;HPM_P2
2021/12/30 00:01:34;;;;;;;0.90;0.20;;;;;;;13.97;100.00;98707.53;5014565;28;20087;-49
2021/12/30 00:04:37;;;;;;;3.58;0.30;;;;;;;14.03;100.00;98713.81;5051181;28;20052;-48
2021/12/30 00:07:42;;;;;;;0.73;0.50;;;;;;;14.07;100.00;98708.66;4975460;28;20513;-49
2021/12/30 00:10:45;;;;;;;0.68;0.10;;;;;;;14.05;100.00;98705.63;4983474;28;20088;-49
2021/12/30 00:13:49;;;;;;;0.57;0.10;;;;;;;14.02;100.00;98696.25;4975153;28;20069;-49
2021/12/30 00:16:53;;;;;;;12.00;0.73;;;;;;;13.92;100.00;98699.94;4966322;28;20080;-49
2021/12/30 00:19:56;;;;;;;1.65;0.90;;;;;;;13.88;100.00;98707.88;4945749;28;20518;-49
2021/12/30 00:23:03;;;;;;;0.63;0.40;;;;;;;14.03;100.00;98699.81;4943709;28;20061;-50
2021/12/30 00:26:06;;;;;;;0.40;0.10;;;;;;;13.97;100.00;98704.72;4971002;28;20066;-49
2021/12/30 00:29:10;;;;;;;10.07;0.35;;;;;;;14.04;100.00;98706.91;4950874;28;20434;-49
2021/12/30 00:32:13;;;;;;;0.63;0.20;;;;;;;14.12;100.00;98699.44;4934254;29;20062;-49
2021/12/30 00:35:16;;;;;;;0.50;0.20;;;;;;;14.17;100.00;98701.41;4903293;29;20112;-49
2021/12/30 00:38:20;;;;;;;0.40;0.30;;;;;;;14.21;100.00;98718.66;4934217;28;20062;-49
2021/12/30 00:41:24;;;;;;;1.85;0.10;;;;;;;14.14;100.00;98713.69;4928429;28;20107;-49
2021/12/30 00:44:27;;;;;;;2.38;0.45;;;;;;;14.18;100.00;98700.13;4953901;28;20066;-49
2021/12/30 00:47:31;;;;;;;0.13;0.13;;;;;;;14.23;100.00;98704.88;4947604;28;20098;-49
2021/12/30 00:50:36;;;;;;;0.20;0.10;;;;;;;14.37;100.00;98695.31;4928050;28;20423;-49
2021/12/30 00:53:41;;;;;;;0.32;0.32;;;;;;;14.47;100.00;98696.44;4950184;28;20066;-48
2021/12/30 00:56:46;;;;;;;3.95;0.30;;;;;;;14.49;100.00;98696.69;4929301;28;20074;-49
2021/12/30 00:59:49;;;;;;;0.10;0.00;;;;;;;14.52;100.00;98709.63;4934796;28;20190;-49
2021/12/30 01:02:53;;;;;;;0.35;0.35;;;;;;;14.64;100.00;98699.78;4962028;28;20062;-50
2021/12/30 01:05:57;;;;;;;0.13;0.13;;;;;;;14.77;100.00;98691.44;4969487;28;20098;-49
2021/12/30 01:09:02;;;;;;;0.20;0.20;;;;;;;14.83;100.00;98694.94;4980404;28;20425;-49
2021/12/30 01:12:07;;;;;;;0.03;0.00;;;;;;;14.77;100.00;98690.69;4961130;28;20053;-50
2021/12/30 01:15:12;;;;;;;0.20;0.10;;;;;;;14.79;100.00;98697.25;4968735;28;20381;-49
2021/12/30 01:21:32;;;;;;;0.10;0.00;;;;;;;14.78;100.00;98698.56;4999059;28;20532;-50
2021/12/30 01:24:36;;;;;;;0.00;0.00;;;;;;;14.72;100.00;98697.91;5018197;28;20061;-50
2021/12/30 01:27:41;;;;;;;0.00;0.00;;;;;;;14.72;100.00;98689.50;4997990;28;20056;-50
2021/12/30 01:30:46;;;;;;;0.28;0.28;;;;;;;14.85;100.00;98692.34;4967315;28;20062;-50
2021/12/30 01:33:50;;;;;;;1.75;0.45;;;;;;;14.86;100.00;98698.69;4940237;28;20073;-51
2021/12/30 01:36:59;;;;;;;4.40;0.20;;;;;;;14.83;100.00;98694.94;4923295;29;20058;-52
2021/12/30 01:40:11;;;;;;;0.20;0.15;;;;;;;14.86;100.00;98691.03;4923213;29;20062;-53
2021/12/30 01:43:15;;;;;;;0.47;0.28;;;;;;;14.97;100.00;98693.69;4933273;28;20067;-53
2021/12/30 01:46:20;;;;;;;0.63;0.38;;;;;;;15.00;100.00;98703.84;4907773;29;20063;-53
2021/12/30 01:49:25;;;;;;;1.95;0.20;;;;;;;15.01;100.00;98705.34;4910556;29;20433;-54
2021/12/30 01:52:28;;;;;;;0.10;0.00;;;;;;;14.93;100.00;98704.44;4895384;29;20079;-53
2021/12/30 01:55:33;;;;;;;0.10;0.10;;;;;;;14.92;100.00;98713.41;4891624;29;20437;-54
2021/12/30 01:58:37;;;;;;;0.10;0.10;;;;;;;15.04;100.00;98707.09;4873930;29;20055;-55
2021/12/30 02:01:41;;;;;;;0.00;0.00;;;;;;;15.06;100.00;98718.53;4948864;28;20058;-53
2021/12/30 02:04:44;;;;;;;0.03;0.03;;;;;;;14.98;100.00;98711.25;4958010;28;20098;-52
2021/12/30 02:07:48;;;;;;;0.13;0.00;;;;;;;15.05;100.00;98710.66;4959721;28;20061;-51
2021/12/30 02:10:51;;;;;;;0.10;0.10;;;;;;;15.10;100.00;98698.56;4926234;28;20066;-51
2021/12/30 02:13:55;;;;;;;0.13;0.00;;;;;;;15.07;100.00;98697.59;4956238;28;20065;-50
2021/12/30 02:16:59;;;;;;;0.10;0.00;;;;;;;15.13;100.00;98689.84;4952608;28;20061;-51
2021/12/30 02:20:12;;;;;;;0.10;0.00;;;;;;;15.16;100.00;98696.41;4930952;28;20077;-51
2021/12/30 02:23:20;;;;;;;0.00;0.00;;;;;;;15.20;100.00;98697.63;4954402;28;20077;-51
2021/12/30 02:26:25;;;;;;;0.00;0.00;;;;;;;15.14;100.00;98702.56;4987936;28;20057;-51
2021/12/30 02:29:28;;;;;;;0.20;0.10;;;;;;;15.26;100.00;98708.00;4950464;28;20062;-51
2021/12/30 02:32:32;;;;;;;0.05;0.00;;;;;;;15.27;100.00;98699.03;4972570;28;20066;-51
2021/12/30 02:35:35;;;;;;;0.10;0.00;;;;;;;15.27;100.00;98693.44;4970959;28;20472;-51
2021/12/30 02:38:44;;;;;;;0.90;0.30;;;;;;;15.25;100.00;98704.44;4969264;28;20061;-51
2021/12/30 02:41:47;;;;;;;0.10;0.00;;;;;;;15.32;100.00;98712.22;4972908;28;20065;-50
2021/12/30 02:44:51;;;;;;;0.00;0.00;;;;;;;15.33;100.00;98724.22;4950647;28;20081;-50
2021/12/30 02:47:55;;;;;;;0.10;0.05;;;;;;;15.37;100.00;98724.66;4977095;28;20437;-50
2021/12/30 02:51:01;;;;;;;0.10;0.00;;;;;;;15.27;100.00;98729.16;4979082;28;20522;-50
2021/12/30 02:54:05;;;;;;;0.00;0.00;;;;;;;15.26;100.00;98724.84;4963291;28;20062;-51
2021/12/30 02:57:10;;;;;;;0.17;0.00;;;;;;;15.26;100.00;98710.81;4972597;28;20058;-50
2021/12/30 03:00:13;;;;;;;0.00;0.00;;;;;;;15.39;100.00;98708.03;4950448;28;20059;-51
2021/12/30 03:03:22;;;;;;;0.10;0.00;;;;;;;15.47;100.00;98722.97;4945481;28;20066;-50
2021/12/30 03:06:26;;;;;;;0.00;0.00;;;;;;;15.47;100.00;98712.50;4956953;28;20069;-50
2021/12/30 03:09:31;;;;;;;0.10;0.00;;;;;;;15.46;100.00;98704.63;4950235;28;20062;-50
2021/12/30 03:12:35;;;;;;;0.10;0.10;;;;;;;15.45;100.00;98717.13;4933793;28;20066;-50
2021/12/30 03:15:38;;;;;;;0.60;0.20;;;;;;;15.54;100.00;98722.34;4960116;28;20426;-51
2021/12/30 03:18:45;;;;;;;0.05;0.05;;;;;;;15.61;100.00;98710.47;4951766;28;20061;-51
2021/12/30 03:21:48;;;;;;;0.22;0.10;;;;;;;15.74;100.00;98716.84;4949579;28;20057;-51
2021/12/30 03:24:52;;;;;;;0.10;0.10;;;;;;;15.78;100.00;98713.75;4952805;28;20085;-51
2021/12/30 03:27:55;;;;;;;0.10;0.00;;;;;;;15.86;100.00;98712.56;4959181;28;20059;-51
2021/12/30 03:30:59;;;;;;;0.00;0.00;;;;;;;15.81;100.00;98712.66;4961827;28;20065;-50
2021/12/30 03:34:03;;;;;;;0.00;0.00;;;;;;;15.94;100.00;98719.03;4960023;28;20430;-51
2021/12/30 03:37:06;;;;;;;0.13;0.00;;;;;;;15.85;100.00;98721.53;4975908;28;20541;-51
2021/12/30 03:40:15;;;;;;;0.10;0.10;;;;;;;15.79;100.00;98715.22;4957178;28;20241;-51
2021/12/30 03:43:19;;;;;;;0.00;0.00;;;;;;;15.84;100.00;98728.41;4995609;28;20129;-51
2021/12/30 03:46:23;;;;;;;0.00;0.00;;;;;;;15.77;100.00;98723.44;4991074;28;20057;-51
2021/12/30 03:49:26;;;;;;;0.00;0.00;;;;;;;16.06;100.00;98733.63;4983208;28;20061;-51
2021/12/30 03:52:31;;;;;;;0.00;0.00;;;;;;;16.21;100.00;98733.81;4991249;28;20117;-51
2021/12/30 03:55:34;;;;;;;0.00;0.00;;;;;;;16.30;100.00;98736.19;4991929;28;20197;-51
2021/12/30 03:58:40;;;;;;;0.05;0.05;;;;;;;16.29;100.00;98729.06;4990900;28;20057;-51
2021/12/30 04:01:44;;;;;;;0.00;0.00;;;;;;;16.22;100.00;98724.09;4991015;28;20398;-51
2021/12/30 04:04:47;;;;;;;0.00;0.00;;;;;;;16.34;100.00;98722.56;4946901;28;20070;-51
2021/12/30 04:07:50;;;;;;;0.00;0.00;;;;;;;16.40;100.00;98723.22;4966494;28;20132;-51
2021/12/30 04:10:56;;;;;;;0.00;0.00;;;;;;;16.49;100.00;98722.78;4945263;28;20073;-51
2021/12/30 04:14:04;;;;;;;0.00;0.00;;;;;;;16.51;100.00;98711.75;4975112;28;20077;-51
2021/12/30 04:17:08;;;;;;;0.00;0.00;;;;;;;16.46;100.00;98726.66;4991093;28;20530;-51
2021/12/30 04:20:14;;;;;;;0.10;0.00;;;;;;;16.50;100.00;98732.72;4982896;28;20056;-51
2021/12/30 04:23:18;;;;;;;0.00;0.00;;;;;;;16.33;100.00;98729.47;4989676;28;20407;-51
2021/12/30 04:26:22;;;;;;;0.10;0.10;;;;;;;16.34;100.00;98719.78;4987243;28;20101;-51
2021/12/30 04:29:25;;;;;;;0.00;0.00;;;;;;;16.28;100.00;98727.56;4987987;28;20097;-51
2021/12/30 04:32:29;;;;;;;0.00;0.00;;;;;;;15.44;100.00;98736.00;4962065;28;20497;-51
2021/12/30 04:35:33;;;;;;;0.00;0.00;;;;;;;16.10;100.00;98736.84;5000082;28;20076;-51
2021/12/30 04:38:37;;;;;;;0.00;0.00;;;;;;;16.30;100.00;98730.59;4994853;28;20073;-51
2021/12/30 04:41:41;;;;;;;0.10;0.00;;;;;;;16.12;100.00;98739.13;4993831;28;20097;-51
2021/12/30 04:44:44;;;;;;;0.70;0.10;;;;;;;16.29;100.00;98751.53;4957420;28;20062;-52
2021/12/30 04:47:48;;;;;;;0.80;0.20;;;;;;;16.35;100.00;98759.88;4956539;28;20062;-51
2021/12/30 04:50:51;;;;;;;0.00;0.00;;;;;;;16.34;100.00;98764.72;4953351;28;20062;-51
2021/12/30 04:53:55;;;;;;;0.00;0.00;;;;;;;16.35;100.00;98759.88;4928591;28;20063;-52
2021/12/30 04:56:59;;;;;;;0.00;0.00;;;;;;;16.23;100.00;98770.56;4959249;28;20058;-52
2021/12/30 05:00:09;;;;;;;0.00;0.00;;;;;;;16.15;100.00;98766.91;4953383;28;20422;-51
2021/12/30 05:03:14;;;;;;;0.15;0.08;;;;;;;16.13;100.00;98785.59;4960109;28;20059;-51
2021/12/30 05:06:18;;;;;;;0.00;0.00;;;;;;;16.16;100.00;98782.44;4993928;28;20065;-51
2021/12/30 05:09:21;;;;;;;0.20;0.00;;;;;;;16.23;100.00;98790.22;4969433;28;20064;-51
2021/12/30 05:12:25;;;;;;;0.00;0.00;;;;;;;16.28;100.00;98795.00;5001156;28;20061;-51
2021/12/30 05:15:28;;;;;;;0.00;0.00;;;;;;;16.30;100.00;98783.97;5037046;28;20079;-51
2021/12/30 05:18:33;;;;;;;0.00;0.00;;;;;;;16.39;100.00;98800.41;5027945;28;20385;-51
2021/12/30 05:21:36;;;;;;;0.20;0.10;;;;;;;16.37;100.00;98797.34;5027048;28;20056;-51
2021/12/30 05:24:39;;;;;;;0.00;0.00;;;;;;;16.23;100.00;98797.91;5048634;28;20440;-51
2021/12/30 05:27:43;;;;;;;0.00;0.00;;;;;;;16.08;100.00;98804.06;5039470;28;20528;-51
2021/12/30 05:30:46;;;;;;;0.00;0.00;;;;;;;15.98;100.00;98819.81;5021271;28;20061;-51
2021/12/30 05:33:50;;;;;;;0.10;0.10;;;;;;;16.11;100.00;98824.69;5018836;28;20117;-51
2021/12/30 05:36:54;;;;;;;0.00;0.00;;;;;;;16.27;100.00;98818.00;4999787;28;20069;-51
2021/12/30 05:39:58;;;;;;;0.00;0.00;;;;;;;16.27;100.00;98824.38;4967705;28;20054;-52
2021/12/30 05:43:02;;;;;;;0.00;0.00;;;;;;;16.20;100.00;98810.22;4956733;28;20082;-51
2021/12/30 05:46:06;;;;;;;0.77;0.17;;;;;;;16.18;100.00;98819.16;4929195;28;20066;-52
2021/12/30 05:49:09;;;;;;;0.40;0.35;;;;;;;16.20;100.00;98819.38;4893678;29;20107;-51
2021/12/30 05:52:13;;;;;;;0.20;0.10;;;;;;;16.31;100.00;98816.38;4949152;28;20109;-50
2021/12/30 05:55:17;;;;;;;0.00;0.00;;;;;;;16.37;100.00;98822.63;4939709;28;20062;-50
2021/12/30 05:58:21;;;;;;;0.00;0.00;;;;;;;16.37;100.00;98835.94;4955636;28;20086;-51
2021/12/30 06:01:25;;;;;;;0.13;0.10;;;;;;;16.31;100.00;98833.22;4949750;28;20498;-51
2021/12/30 06:04:28;;;;;;;0.15;0.00;;;;;;;16.36;100.00;98834.41;4915924;29;20099;-51
2021/12/30 06:07:32;;;;;;;0.00;0.00;;;;;;;16.26;100.00;98836.91;4943474;28;20070;-50
2021/12/30 06:10:37;;;;;;;0.75;0.20;;;;;;;16.32;100.00;98846.00;4940459;28;20062;-50
2021/12/30 06:13:41;;;;;;;0.00;0.00;;;;;;;16.35;100.00;98850.53;4934112;28;20062;-51
2021/12/30 06:16:44;;;;;;;0.00;0.00;;;;;;;16.35;100.00;98861.03;4935599;29;20091;-51
2021/12/30 06:19:48;;;;;;;0.30;0.10;;;;;;;16.46;100.00;98864.38;4912655;28;20062;-50
2021/12/30 06:22:52;;;;;;;0.00;0.00;;;;;;;16.48;100.00;98867.38;4924194;28;20077;-51
2021/12/30 06:25:55;;;;;;;0.47;0.10;;;;;;;16.50;100.00;98876.06;4935907;28;20062;-50
2021/12/30 06:28:59;;;;;;;0.70;0.10;;;;;;;16.54;100.00;98878.56;4946694;28;20073;-50
2021/12/30 06:32:04;;;;;;;0.28;0.20;;;;;;;16.48;100.00;98877.91;4948198;28;20070;-50
2021/12/30 06:35:09;;;;;;;0.00;0.00;;;;;;;16.42;100.00;98896.91;4951489;28;20070;-51
2021/12/30 06:38:12;;;;;;;0.00;0.00;;;;;;;16.49;100.00;98894.22;4957591;28;20070;-50
2021/12/30 06:41:16;;;;;;;0.10;0.00;;;;;;;16.47;100.00;98896.81;4971284;28;20158;-51
2021/12/30 06:44:19;;;;;;;0.00;0.00;;;;;;;16.58;100.00;98902.25;4967350;28;20061;-50
2021/12/30 06:47:24;;;;;;;0.00;0.00;;;;;;;16.64;100.00;98908.53;4978196;28;20594;-51
2021/12/30 06:50:31;;;;;;;0.00;0.00;;;;;;;16.60;100.00;98905.28;4994951;28;20061;-50
2021/12/30 06:53:35;;;;;;;0.00;0.00;;;;;;;16.71;100.00;98904.31;5013848;28;20431;-51
2021/12/30 06:56:39;;;;;;;0.00;0.00;;;;;;;16.80;100.00;98900.31;5012399;28;20525;-50
2021/12/30 06:59:42;;;;;;;0.80;0.03;;;;;;;16.68;100.00;98900.50;5012118;28;20060;-50
2021/12/30 07:02:46;;;;;;;0.10;0.10;;;;;;;16.53;100.00;98902.34;5009988;28;20064;-50
2021/12/30 07:05:52;;;;;;;0.10;0.00;;;;;;;16.55;100.00;98892.06;5006299;28;20065;-50
2021/12/30 07:08:56;;;;;;;0.00;0.00;;;;;;;16.56;100.00;98898.47;5032233;28;20116;-50
2021/12/30 07:11:59;;;;;;;0.00;0.00;;;;;;;16.63;100.00;98904.19;4996645;28;20528;-50
2021/12/30 07:15:06;;;;;;;0.00;0.00;;;;;;;16.68;100.00;98900.50;5027361;28;20456;-50
2021/12/30 07:18:10;;;;;;;0.00;0.00;;;;;;;16.52;100.00;98893.16;5025457;28;20057;-49
2021/12/30 07:21:13;;;;;;;0.10;0.00;;;;;;;16.54;100.00;98901.81;5005295;28;20065;-49
2021/12/30 07:24:20;;;;;;;0.05;0.00;;;;;;;16.54;100.00;98901.81;5008401;28;20064;-49
2021/12/30 07:27:24;;;;;;;0.10;0.10;;;;;;;16.42;100.00;98917.31;5003783;28;20065;-50
2021/12/30 07:30:27;;;;;;;0.00;0.00;;;;;;;16.46;100.00;98911.38;5006867;28;20052;-49
2021/12/30 07:33:31;;;;;;;0.00;0.00;;;;;;;16.43;100.00;98921.66;4978413;28;20098;-50
2021/12/30 07:36:34;;;;;;;0.10;0.00;;;;;;;16.42;100.00;98922.19;4988084;28;20103;-49
2021/12/30 07:39:38;;;;;;;0.10;0.10;;;;;;;16.37;100.00;98920.97;4978760;28;20053;-49
2021/12/30 07:42:42;;;;;;;0.00;0.00;;;;;;;16.42;100.00;98917.31;4980157;28;20061;-49
2021/12/30 07:45:45;;;;;;;0.10;0.00;;;;;;;16.43;100.00;98929.34;5011544;28;20065;-49
2021/12/30 07:48:49;;;;;;;0.10;0.00;;;;;;;16.52;100.00;98938.13;4989930;28;20061;-49
2021/12/30 07:51:52;;;;;;;0.65;0.30;;;;;;;16.54;100.00;98934.78;4996912;28;20056;-49
2021/12/30 07:54:55;;;;;;;0.00;0.00;;;;;;;16.56;100.00;98944.19;5000944;28;20061;-49
2021/12/30 07:57:59;;;;;;;0.00;0.00;;;;;;;16.65;100.00;98952.19;4996702;28;20521;-49
2021/12/30 08:01:02;;;;;;;0.10;0.10;;;;;;;16.73;100.00;98945.94;4987336;28;20057;-49
2021/12/30 08:04:06;;;;;;;0.00;0.00;;;;;;;16.75;100.00;98937.72;5014556;28;20064;-49
2021/12/30 08:07:09;;;;;;;0.00;0.00;;;;;;;16.74;100.00;98942.56;5024157;28;20059;-50
2021/12/30 08:10:15;;;;;;;0.00;0.00;;;;;;;16.74;100.00;98953.09;4994339;28;20184;-50
2021/12/30 08:13:18;;;;;;;0.00;0.00;;;;;;;16.63;100.00;98957.59;5002321;28;20049;-50
2021/12/30 08:16:22;;;;;;;0.80;0.47;;;;;;;16.71;100.00;98962.59;4984571;28;20061;-50
2021/12/30 08:19:25;;;;;;;0.10;0.00;;;;;;;16.71;100.00;98968.22;5016719;28;20061;-50
2021/12/30 08:22:29;;;;;;;0.10;0.00;;;;;;;16.72;100.00;98961.31;5009979;28;20157;-49
2021/12/30 08:25:33;;;;;;;0.10;0.10;;;;;;;16.66;100.00;98964.97;5001326;28;20061;-49
2021/12/30 08:28:37;;;;;;;0.10;0.10;;;;;;;16.71;100.00;98965.41;5008979;28;20534;-50
2021/12/30 08:31:41;;;;;;;0.00;0.00;;;;;;;16.66;100.00;98959.34;4987577;28;20077;-50
2021/12/30 08:34:46;;;;;;;1.27;0.10;;;;;;;16.44;100.00;98975.81;5009448;28;20072;-50
2021/12/30 08:37:51;;;;;;;0.00;0.00;;;;;;;16.30;100.00;98972.22;5020153;28;20061;-50
2021/12/30 08:40:55;;;;;;;1.77;0.10;;;;;;;16.36;100.00;98986.16;5008178;28;20072;-49
2021/12/30 08:43:58;;;;;;;0.28;0.00;;;;;;;16.33;100.00;98971.13;4985505;28;20064;-49
2021/12/30 08:47:01;;;;;;;0.00;0.00;;;;;;;16.35;100.00;98965.72;4985900;28;20077;-50
2021/12/30 08:50:08;;;;;;;0.15;0.15;;;;;;;16.28;100.00;98963.56;5009584;28;20060;-55
2021/12/30 08:53:13;;;;;;;0.00;0.00;;;;;;;16.37;100.00;98965.22;5025905;28;20056;-54
2021/12/30 08:56:17;;;;;;;0.22;0.13;;;;;;;16.41;100.00;98960.03;5010212;28;20065;-54
2021/12/30 08:59:20;;;;;;;1.77;0.15;;;;;;;16.35;100.00;98962.19;4989270;28;20404;-55
2021/12/30 09:02:24;;;;;;;0.00;0.00;;;;;;;16.40;100.00;98976.13;5049127;28;20079;-54
2021/12/30 09:05:27;;;;;;;0.00;0.00;;;;;;;16.40;100.00;98981.75;5031129;28;20128;-55
2021/12/30 09:08:31;;;;;;;1.65;0.20;;;;;;;16.40;100.00;98984.56;5007159;28;20110;-55
2021/12/30 09:11:35;;;;;;;0.00;0.00;;;;;;;16.36;100.00;98992.56;5030638;28;20516;-54
2021/12/30 09:14:38;;;;;;;0.00;0.00;;;;;;;16.34;100.00;98992.31;5016478;28;20192;-54
2021/12/30 09:17:43;;;;;;;0.45;0.17;;;;;;;16.44;100.00;98987.81;5049691;28;21052;-54
2021/12/30 09:20:47;;;;;;;0.10;0.00;;;;;;;16.33;100.00;98981.63;5013219;28;20073;-54
2021/12/30 09:23:50;;;;;;;0.30;0.20;;;;;;;16.21;100.00;98986.66;5030169;28;20064;-55
2021/12/30 09:26:54;;;;;;;0.10;0.00;;;;;;;16.16;100.00;98993.13;4982310;28;20059;-55
2021/12/30 09:29:59;;;;;;;0.00;0.00;;;;;;;16.20;100.00;99001.25;4989530;28;20061;-55
2021/12/30 09:33:04;;;;;;;0.00;0.00;;;;;;;16.33;100.00;99004.84;4983602;28;20544;-54
2021/12/30 09:36:07;;;;;;;0.70;0.30;;;;;;;16.29;100.00;99007.22;5006809;28;20053;-55
2021/12/30 09:39:12;;;;;;;2.28;0.40;;;;;;;16.16;100.00;99012.78;4998515;28;20060;-54
2021/12/30 09:42:18;;;;;;;0.40;0.40;;;;;;;16.11;100.00;99022.06;4974526;28;20096;-54
2021/12/30 09:45:22;;;;;;;0.30;0.10;;;;;;;16.16;100.00;99021.22;4989974;28;20090;-54
2021/12/30 09:48:25;;;;;;;0.00;0.00;;;;;;;16.21;100.00;99026.00;4988884;28;20492;-54
2021/12/30 09:51:29;;;;;;;0.00;0.00;;;;;;;16.35;100.00;99030.38;4984032;28;20414;-54
2021/12/30 09:54:33;;;;;;;0.00;0.00;;;;;;;16.39;100.00;99028.03;4974043;28;20061;-54
2021/12/30 09:57:38;;;;;;;1.55;0.57;;;;;;;16.41;100.00;99035.91;4998670;28;20530;-54
2021/12/30 10:00:43;;;;;;;0.50;0.10;;;;;;;16.42;100.00;99046.59;4981821;28;20609;-55
2021/12/30 10:03:46;;;;;;;0.20;0.10;;;;;;;16.53;100.00;99052.09;4964573;28;20548;-54
2021/12/30 10:06:50;;;;;;;6.50;0.90;;;;;;;16.70;100.00;99051.06;4967862;28;20052;-54
2021/12/30 10:09:59;;;;;;;0.00;0.00;;;;;;;16.84;100.00;99056.16;4983544;28;20076;-55
2021/12/30 10:13:15;;;;;;;0.30;0.20;;;;;;;16.97;100.00;99061.03;5011401;28;20061;-54
2021/12/30 10:16:19;;;;;;;0.10;0.10;;;;;;;17.04;100.00;99061.19;4987391;28;20225;-55
2021/12/30 10:19:26;;;;;;;0.10;0.00;;;;;;;17.07;100.00;99053.69;4987703;28;20060;-55
2021/12/30 10:22:29;;;;;;;0.03;0.03;;;;;;;17.10;100.00;99055.44;4994418;28;20061;-54
2021/12/30 10:25:36;;;;;;;1.98;0.28;;;;;;;17.04;100.00;99051.97;5011216;28;20421;-55
2021/12/30 10:28:43;;;;;;;1.35;0.40;;;;;;;16.98;100.00;99062.56;5015496;28;20064;-56
2021/12/30 10:31:48;;;;;;;0.38;0.05;;;;;;;16.96;100.00;99071.53;5014835;28;20057;-54
2021/12/30 10:35:09;;;;;;;0.30;0.22;;;;;;;16.91;100.00;99085.72;5005050;28;20068;-54
2021/12/30 10:38:12;;;;;;;0.00;0.00;;;;;;;16.79;100.00;99095.63;5031623;28;20079;-54
2021/12/30 10:41:16;;;;;;;0.25;0.15;;;;;;;16.65;100.00;99098.38;4981744;28;20418;-55
2021/12/30 10:44:20;;;;;;;2.50;0.52;;;;;;;16.62;100.00;99109.94;5016931;28;20065;-55
2021/12/30 10:47:30;;;;;;;9.32;2.00;;;;;;;16.60;100.00;99104.09;5022583;28;20069;-55
2021/12/30 10:50:34;;;;;;;4.38;1.23;;;;;;;16.59;100.00;99111.78;5021962;28;20053;-55
2021/12/30 10:53:38;;;;;;;10.63;2.05;;;;;;;16.53;100.00;99116.72;5010977;28;20497;-55
2021/12/30 10:56:48;;;;;;;8.05;1.55;;;;;;;16.51;100.00;99110.88;5036714;28;20076;-55
2021/12/30 10:59:53;;;;;;;5.93;0.75;;;;;;;16.54;100.00;99115.44;4991332;28;20064;-55
2021/12/30 11:03:24;;;;;;;11.98;2.15;;;;;;;16.46;100.00;99120.13;5022226;28;20055;-55
2021/12/30 11:06:28;;;;;;;4.53;1.27;;;;;;;16.38;100.00;99113.59;5017923;28;20057;-55
2021/12/30 11:09:32;;;;;;;3.95;0.38;;;;;;;16.42;100.00;99108.44;5038141;28;20440;-55
2021/12/30 11:12:41;;;;;;;6.03;1.67;;;;;;;16.46;100.00;99102.50;5034925;28;20068;-55
2021/12/30 11:15:44;;;;;;;2.42;0.95;;;;;;;16.59;100.00;99117.41;5014877;28;20059;-55
2021/12/30 11:18:48;;;;;;;0.30;0.20;;;;;;;16.54;100.00;99104.22;5034996;28;20524;-50
2021/12/30 11:21:53;;;;;;;1.45;0.98;;;;;;;16.65;100.00;99084.31;5051373;28;20060;-50
2021/12/30 11:24:59;;;;;;;1.40;0.40;;;;;;;16.73;100.00;99086.53;5000965;28;20057;-49
2021/12/30 11:28:04;;;;;;;0.35;0.25;;;;;;;16.81;100.00;99082.53;5011548;28;20096;-49
2021/12/30 11:31:07;;;;;;;1.95;0.65;;;;;;;16.88;100.00;99083.97;4998285;28;20052;-50
2021/12/30 11:34:11;;;;;;;2.63;0.70;;;;;;;16.83;100.00;99096.09;5020510;28;20060;-49
2021/12/30 11:37:16;;;;;;;1.13;0.30;;;;;;;16.86;100.00;99095.00;4992031;28;20061;-49
2021/12/30 11:40:24;;;;;;;3.92;1.10;;;;;;;17.02;100.00;99088.31;4983282;28;20114;-49
2021/12/30 11:43:42;;;;;;;0.22;0.10;;;;;;;17.12;100.00;99090.19;5003929;28;20061;-49
2021/12/30 11:46:50;;;;;;;5.43;1.10;;;;;;;17.21;100.00;99095.38;5035061;28;20065;-49
2021/12/30 11:50:02;;;;;;;0.10;0.00;;;;;;;17.31;100.00;99090.09;5019033;28;20079;-50
2021/12/30 11:53:11;;;;;;;0.10;0.10;;;;;;;17.24;100.00;99096.34;5013620;28;20496;-49
2021/12/30 11:56:15;;;;;;;0.63;0.15;;;;;;;17.19;100.00;99100.03;5029629;28;20060;-55
2021/12/30 11:59:30;;;;;;;2.45;0.52;;;;;;;17.16;100.00;99095.47;5035158;28;20068;-55
2021/12/30 12:02:36;;;;;;;0.10;0.00;;;;;;;17.33;100.00;99093.09;5008939;28;20068;-55
2021/12/30 12:05:42;;;;;;;1.17;0.20;;;;;;;17.39;100.00;99085.31;5023507;28;20072;-55
2021/12/30 12:08:46;;;;;;;0.00;0.00;;;;;;;17.42;100.00;99090.63;5030035;28;20060;-55
2021/12/30 12:12:01;;;;;;;0.10;0.00;;;;;;;17.43;100.00;99082.94;4973280;28;20576;-55
2021/12/30 12:15:05;;;;;;;0.80;0.52;;;;;;;17.40;100.00;99087.59;4988681;28;20069;-55
2021/12/30 12:18:12;;;;;;;0.00;0.00;;;;;;;17.28;100.00;99091.19;4996194;28;20072;-59
2021/12/30 12:21:16;;;;;;;9.52;0.73;;;;;;;17.22;100.00;99090.50;5003492;28;20394;-58
2021/12/30 12:24:22;;;;;;;8.57;0.30;;;;;;;17.16;100.00;99089.84;5012007;28;20081;-57
2021/12/30 12:27:34;;;;;;;3.42;0.80;;;;;;;17.08;100.00;99086.16;5003714;28;20045;-59
2021/12/30 12:30:38;;;;;;;0.95;0.22;;;;;;;16.96;100.00;99093.28;5022930;28;20047;-57
2021/12/30 12:33:42;;;;;;;0.00;0.00;;;;;;;16.87;100.00;99102.88;5020150;28;20060;-56
2021/12/30 12:36:46;;;;;;;0.20;0.17;;;;;;;16.84;100.00;99103.22;4998872;28;20145;-55
2021/12/30 12:40:27;;;;;;;0.43;0.20;;;;;;;16.77;100.00;99092.59;5008019;28;20059;-57
2021/12/30 12:43:33;;;;;;;2.20;0.10;;;;;;;16.66;100.00;99097.09;5008689;28;20068;-57
2021/12/30 12:46:40;;;;;;;0.52;0.25;;;;;;;16.66;100.00;99099.16;5018269;28;20072;-57
2021/12/30 12:49:44;;;;;;;1.08;0.40;;;;;;;16.63;100.00;99100.25;5013836;28;20517;-57
2021/12/30 12:52:47;;;;;;;0.10;0.00;;;;;;;16.64;100.00;99099.69;4931268;28;20054;-56
2021/12/30 12:56:03;;;;;;;1.17;0.22;;;;;;;16.67;100.00;99100.69;5009326;28;20513;-56
2021/12/30 12:59:08;;;;;;;0.82;0.40;;;;;;;16.65;100.00;99098.38;5009279;28;20493;-56
2021/12/30 13:02:14;;;;;;;0.45;0.20;;;;;;;16.65;100.00;99077.97;5008072;28;20069;-57
2021/12/30 13:05:18;;;;;;;3.72;0.35;;;;;;;16.89;100.00;99088.31;5009609;28;20057;-55
2021/12/30 13:08:23;;;;;;;0.52;0.10;;;;;;;16.98;100.00;99093.53;5008437;28;20053;-55
2021/12/30 13:11:32;;;;;;;0.10;0.10;;;;;;;17.01;100.00;99098.06;5003624;28;20060;-55
2021/12/30 13:14:39;;;;;;;0.00;0.00;;;;;;;17.08;100.00;99074.91;5020366;28;20053;-55
2021/12/30 13:17:44;;;;;;;0.20;0.20;;;;;;;17.08;100.00;99088.97;5027080;28;20060;-55
2021/12/30 13:20:48;;;;;;;0.38;0.17;;;;;;;16.98;100.00;99097.06;5030295;28;20407;-50
2021/12/30 13:23:52;;;;;;;1.35;0.10;;;;;;;16.94;100.00;99102.25;5001831;28;20538;-49
2021/12/30 13:26:58;;;;;;;0.08;0.08;;;;;;;16.91;100.00;99091.34;5014557;28;20068;-50
2021/12/30 13:30:19;;;;;;;0.10;0.10;;;;;;;16.88;100.00;99106.47;5041819;28;20068;-50
2021/12/30 13:33:22;;;;;;;1.35;0.10;;;;;;;16.90;100.00;99098.25;5024865;28;20377;-50
2021/12/30 13:36:27;;;;;;;0.40;0.20;;;;;;;16.89;100.00;99096.75;5032025;28;20063;-50
2021/12/30 13:39:34;;;;;;;0.10;0.00;;;;;;;16.69;100.00;99103.72;5016088;28;20064;-50
2021/12/30 13:42:46;;;;;;;0.22;0.00;;;;;;;16.65;100.00;99106.81;5036513;28;20393;-50
2021/12/30 13:45:54;;;;;;;0.00;0.00;;;;;;;16.67;100.00;99097.88;5019518;28;20064;-50
2021/12/30 13:48:58;;;;;;;3.33;0.10;;;;;;;16.73;100.00;99092.16;5028028;28;20068;-51
2021/12/30 13:52:02;;;;;;;0.10;0.10;;;;;;;16.76;100.00;99097.47;4992467;28;20079;-51
2021/12/30 13:55:08;;;;;;;0.43;0.22;;;;;;;16.83;100.00;99084.84;5005232;28;20060;-51
2021/12/30 13:58:16;;;;;;;0.05;0.00;;;;;;;16.83;100.00;99091.19;5006902;28;20427;-50
2021/12/30 14:01:22;;;;;;;0.47;0.13;;;;;;;16.86;100.00;99078.88;5000804;28;20057;-51
2021/12/30 14:04:38;;;;;;;0.10;0.10;;;;;;;16.76;100.00;99077.03;5005142;28;20083;-50
2021/12/30 14:07:44;;;;;;;1.10;0.57;;;;;;;16.79;100.00;99082.31;4991033;28;20426;-51
2021/12/30 14:10:57;;;;;;;0.13;0.03;;;;;;;16.83;100.00;99079.22;5011428;28;20494;-50
2021/12/30 14:14:04;;;;;;;0.63;0.10;;;;;;;16.86;100.00;99083.75;5001819;28;20060;-50
2021/12/30 14:17:10;;;;;;;0.98;0.73;;;;;;;16.92;100.00;99082.34;5011026;28;20061;-51
2021/12/30 14:20:15;;;;;;;0.25;0.10;;;;;;;16.84;100.00;99091.97;4994520;28;20501;-50
2021/12/30 14:23:53;;;;;;;0.10;0.00;;;;;;;16.92;100.00;99092.84;4971917;28;20072;-50